Time;durP1;ratioP1;P1;durP2;ratioP2;P2;SDS_P1;SDS_P2;PMS_P1;PMS_P2;Temp;Humidity;BMP_temperature;BMP_pressure;BME280_temperature;BME280_humidity;BME280_pressure;Samples;Min_cycle;Max_cycle;Signal;HPM_P1;HPM_P2
2022/10/19 00:00:46;;;;;;;;;;;17.90;94.30;;;;;;5045099;28;19940;-78
2022/10/19 00:03:12;;;;;;;;;;;17.90;94.30;;;;;;5044643;28;19935;-78
2022/10/19 00:05:39;;;;;;;;;;;17.90;94.30;;;;;;5044331;28;19940;-79
2022/10/19 00:08:06;;;;;;;;;;;17.90;94.30;;;;;;5047949;28;19928;-78
2022/10/19 00:10:32;;;;;;;;;;;17.80;94.20;;;;;;5045949;28;20612;-78
2022/10/19 00:12:59;;;;;;;;;;;17.80;94.20;;;;;;5045533;28;20005;-77
2022/10/19 00:15:26;;;;;;;;;;;17.80;94.30;;;;;;5046357;28;19933;-78
2022/10/19 00:17:53;;;;;;;;;;;17.70;94.20;;;;;;5041956;28;19933;-78
2022/10/19 00:20:20;;;;;;;;;;;17.70;94.30;;;;;;5046357;28;19928;-78
2022/10/19 00:22:49;;;;;;;;;;;17.70;94.30;;;;;;5046884;28;19935;-79
2022/10/19 00:25:15;;;;;;;;;;;17.70;94.30;;;;;;5044705;28;19932;-78
2022/10/19 00:27:42;;;;;;;;;;;17.60;94.30;;;;;;5043526;28;19932;-78
2022/10/19 00:30:08;;;;;;;;;;;17.60;94.30;;;;;;5045406;28;20524;-79
2022/10/19 00:32:35;;;;;;;;;;;17.60;94.30;;;;;;5046307;28;19928;-78
2022/10/19 00:35:03;;;;;;;;;;;17.60;94.30;;;;;;5042951;28;20424;-78
2022/10/19 00:37:30;;;;;;;;;;;17.50;94.30;;;;;;5044677;28;19928;-79
2022/10/19 00:39:56;;;;;;;;;;;17.50;94.30;;;;;;5043904;28;19940;-79
2022/10/19 00:42:23;;;;;;;;;;;17.50;94.30;;;;;;5042756;28;20353;-79
2022/10/19 00:45:00;;;;;;;;;;;17.50;94.30;;;;;;5045713;28;19928;-78
2022/10/19 00:47:27;;;;;;;;;;;17.50;94.40;;;;;;5043140;28;19929;-78
2022/10/19 00:49:54;;;;;;;;;;;17.40;94.30;;;;;;5044135;28;19928;-78
2022/10/19 00:52:24;;;;;;;;;;;17.40;94.40;;;;;;5043406;28;19928;-78
2022/10/19 00:54:52;;;;;;;;;;;17.40;94.40;;;;;;5045014;28;19929;-78
2022/10/19 00:57:19;;;;;;;;;;;17.40;94.50;;;;;;5042134;28;19936;-78
2022/10/19 00:59:46;;;;;;;;;;;17.40;94.50;;;;;;5044779;28;20332;-79
2022/10/19 01:02:13;;;;;;;;;;;17.40;94.50;;;;;;5042179;28;19980;-78
2022/10/19 01:04:41;;;;;;;;;;;17.40;94.60;;;;;;5045038;28;19929;-79
2022/10/19 01:07:08;;;;;;;;;;;17.30;94.50;;;;;;5045738;28;19928;-78
2022/10/19 01:09:36;;;;;;;;;;;17.30;94.60;;;;;;5042667;28;20415;-78
2022/10/19 01:12:06;;;;;;;;;;;17.30;94.60;;;;;;5043475;28;19932;-78
2022/10/19 01:14:38;;;;;;;;;;;17.30;94.60;;;;;;5044764;28;19933;-78
2022/10/19 01:17:10;;;;;;;;;;;17.30;94.70;;;;;;5045401;28;20040;-78
2022/10/19 01:19:47;;;;;;;;;;;17.30;94.70;;;;;;5042320;28;19968;-78
2022/10/19 01:22:20;;;;;;;;;;;17.20;94.70;;;;;;5044988;28;19936;-78
2022/10/19 01:25:00;;;;;;;;;;;17.20;94.70;;;;;;5041011;28;19935;-79
2022/10/19 01:27:53;;;;;;;;;;;17.20;94.70;;;;;;5041501;28;19929;-78
2022/10/19 01:30:27;;;;;;;;;;;17.20;94.70;;;;;;5038284;28;20022;-78
2022/10/19 01:33:02;;;;;;;;;;;17.20;94.70;;;;;;5049234;28;19971;-78
2022/10/19 01:35:31;;;;;;;;;;;17.10;94.80;;;;;;5043286;28;19936;-79
2022/10/19 01:38:04;;;;;;;;;;;17.10;94.80;;;;;;5045196;28;20464;-78
2022/10/19 01:40:33;;;;;;;;;;;17.10;94.80;;;;;;5043911;28;19928;-78
2022/10/19 01:43:02;;;;;;;;;;;17.10;94.80;;;;;;5044431;28;19932;-78
2022/10/19 01:45:33;;;;;;;;;;;17.10;94.80;;;;;;5043142;28;20569;-78
2022/10/19 01:48:03;;;;;;;;;;;17.00;94.80;;;;;;5042906;28;19932;-78
2022/10/19 01:50:31;;;;;;;;;;;17.10;94.90;;;;;;5043875;28;19939;-76
2022/10/19 01:52:58;;;;;;;;;;;17.00;94.80;;;;;;5043000;28;19929;-78
2022/10/19 01:55:26;;;;;;;;;;;17.00;94.90;;;;;;5044951;28;20503;-78
2022/10/19 01:57:55;;;;;;;;;;;17.00;94.90;;;;;;5041117;28;19933;-78
2022/10/19 02:00:22;;;;;;;;;;;16.90;94.90;;;;;;5043419;28;19933;-78
2022/10/19 02:02:52;;;;;;;;;;;16.90;94.90;;;;;;5042827;28;19939;-79
2022/10/19 02:05:20;;;;;;;;;;;16.90;94.90;;;;;;5045102;28;19947;-78
2022/10/19 02:07:49;;;;;;;;;;;16.90;95.00;;;;;;5042683;28;19933;-78
2022/10/19 02:10:16;;;;;;;;;;;16.80;94.90;;;;;;5042850;28;20593;-79
2022/10/19 02:12:42;;;;;;;;;;;16.80;95.00;;;;;;5042861;28;19928;-78
2022/10/19 02:15:10;;;;;;;;;;;16.80;95.00;;;;;;5044423;28;19937;-78
2022/10/19 02:17:39;;;;;;;;;;;16.80;95.00;;;;;;5041107;28;19929;-78
2022/10/19 02:20:08;;;;;;;;;;;16.80;95.00;;;;;;5043689;28;19933;-78
2022/10/19 02:22:35;;;;;;;;;;;16.70;95.00;;;;;;5043336;28;19929;-78
2022/10/19 02:25:02;;;;;;;;;;;16.70;95.00;;;;;;5039604;28;19929;-79
2022/10/19 02:27:29;;;;;;;;;;;16.70;95.00;;;;;;5040514;28;20340;-77
2022/10/19 02:29:55;;;;;;;;;;;16.70;95.00;;;;;;5043718;28;19929;-78
2022/10/19 02:32:22;;;;;;;;;;;16.70;95.00;;;;;;5041429;28;19940;-78
2022/10/19 02:34:49;;;;;;;;;;;16.60;95.00;;;;;;5045296;28;19947;-78
2022/10/19 02:37:17;;;;;;;;;;;16.60;95.00;;;;;;5045644;28;19936;-77
2022/10/19 02:39:43;;;;;;;;;;;16.60;95.10;;;;;;5043566;28;20311;-78
2022/10/19 02:42:11;;;;;;;;;;;16.60;95.10;;;;;;5040078;28;20467;-78
2022/10/19 02:44:40;;;;;;;;;;;16.60;95.10;;;;;;5045357;28;19929;-78
2022/10/19 02:47:10;;;;;;;;;;;16.60;95.10;;;;;;5042094;28;19928;-78
2022/10/19 02:49:37;;;;;;;;;;;16.60;95.20;;;;;;5048402;28;19963;-79
2022/10/19 02:52:05;;;;;;;;;;;16.50;95.20;;;;;;5048009;28;19935;-78
2022/10/19 02:54:33;;;;;;;;;;;16.50;95.20;;;;;;5043212;28;20312;-78
2022/10/19 02:57:00;;;;;;;;;;;16.50;95.20;;;;;;5041580;28;19933;-78
2022/10/19 02:59:27;;;;;;;;;;;16.50;95.20;;;;;;5045881;28;20399;-78
2022/10/19 03:01:54;;;;;;;;;;;16.50;95.30;;;;;;5047957;28;19939;-78
2022/10/19 03:04:20;;;;;;;;;;;16.50;95.30;;;;;;5045426;28;20480;-78
2022/10/19 03:06:47;;;;;;;;;;;16.50;95.30;;;;;;5044858;28;19936;-78
2022/10/19 03:09:13;;;;;;;;;;;16.50;95.30;;;;;;5047109;28;20690;-79
2022/10/19 03:11:41;;;;;;;;;;;16.50;95.40;;;;;;5043267;28;20434;-78
2022/10/19 03:14:08;;;;;;;;;;;16.50;95.40;;;;;;5046971;28;19935;-79
2022/10/19 03:16:34;;;;;;;;;;;16.40;95.40;;;;;;5045495;28;21149;-78
2022/10/19 03:19:01;;;;;;;;;;;16.50;95.50;;;;;;5044983;28;19928;-78
2022/10/19 03:21:27;;;;;;;;;;;16.40;95.50;;;;;;5044592;28;20645;-78
2022/10/19 03:23:54;;;;;;;;;;;16.40;95.50;;;;;;5043821;28;19951;-78
2022/10/19 03:26:20;;;;;;;;;;;16.40;95.50;;;;;;5045733;28;19935;-78
2022/10/19 03:28:48;;;;;;;;;;;16.40;95.50;;;;;;5043963;28;19929;-78
2022/10/19 03:31:15;;;;;;;;;;;16.40;95.60;;;;;;5043671;28;19935;-77
2022/10/19 03:33:41;;;;;;;;;;;16.40;95.60;;;;;;5048470;28;19928;-78
2022/10/19 03:36:20;;;;;;;;;;;16.40;95.70;;;;;;5048114;28;19929;-78
2022/10/19 03:38:46;;;;;;;;;;;16.40;95.70;;;;;;5044176;28;19932;-79
2022/10/19 03:41:13;;;;;;;;;;;16.40;95.70;;;;;;5047153;28;19937;-78
2022/10/19 03:43:40;;;;;;;;;;;16.40;95.80;;;;;;5042683;28;19933;-78
2022/10/19 03:46:08;;;;;;;;;;;16.40;95.80;;;;;;5045911;28;20056;-78
2022/10/19 03:48:35;;;;;;;;;;;16.40;95.80;;;;;;5045923;28;20002;-78
2022/10/19 03:51:03;;;;;;;;;;;16.30;95.80;;;;;;5045413;28;19967;-78
2022/10/19 03:53:30;;;;;;;;;;;16.40;95.90;;;;;;5046222;28;19932;-77
2022/10/19 03:56:00;;;;;;;;;;;16.30;95.90;;;;;;5045605;28;19967;-78
2022/10/19 03:58:27;;;;;;;;;;;16.40;95.90;;;;;;5043863;28;19937;-78
2022/10/19 04:00:53;;;;;;;;;;;16.40;95.90;;;;;;5046357;28;19933;-78
2022/10/19 04:03:21;;;;;;;;;;;16.40;95.90;;;;;;5045705;28;19936;-77
2022/10/19 04:05:48;;;;;;;;;;;16.30;95.90;;;;;;5048554;28;19939;-78
2022/10/19 04:08:14;;;;;;;;;;;16.30;95.90;;;;;;5044506;28;19951;-78
2022/10/19 04:10:41;;;;;;;;;;;16.30;96.00;;;;;;5044674;28;19939;-79
2022/10/19 04:13:08;;;;;;;;;;;16.40;96.00;;;;;;5043042;28;20592;-79
2022/10/19 04:15:34;;;;;;;;;;;16.30;96.00;;;;;;5043599;28;19929;-78
2022/10/19 04:18:01;;;;;;;;;;;16.30;96.00;;;;;;5044045;28;19932;-79
2022/10/19 04:20:29;;;;;;;;;;;16.30;96.00;;;;;;5045813;28;19929;-78
2022/10/19 04:22:55;;;;;;;;;;;16.30;96.00;;;;;;5043498;28;19933;-77
2022/10/19 04:25:22;;;;;;;;;;;16.30;96.10;;;;;;5043742;28;19941;-78
2022/10/19 04:27:48;;;;;;;;;;;16.30;96.10;;;;;;5046677;28;19929;-79
2022/10/19 04:30:15;;;;;;;;;;;16.30;96.10;;;;;;5042597;28;19932;-76
2022/10/19 04:32:41;;;;;;;;;;;16.30;96.10;;;;;;5042754;28;19924;-77
2022/10/19 04:35:08;;;;;;;;;;;16.20;96.10;;;;;;5046068;28;20660;-70
2022/10/19 04:37:36;;;;;;;;;;;16.30;96.10;;;;;;5043947;28;19933;-70
2022/10/19 04:40:04;;;;;;;;;;;16.30;96.50;;;;;;5043176;28;19939;-70
2022/10/19 04:42:31;;;;;;;;;;;16.30;96.20;;;;;;5044311;28;19928;-70
2022/10/19 04:44:58;;;;;;;;;;;16.30;96.20;;;;;;5043701;28;19936;-70
2022/10/19 04:47:24;;;;;;;;;;;16.30;96.20;;;;;;5042672;28;19936;-71
2022/10/19 04:49:51;;;;;;;;;;;16.30;96.30;;;;;;5045024;28;19928;-70
2022/10/19 04:52:17;;;;;;;;;;;16.20;96.20;;;;;;5045095;28;19943;-71
2022/10/19 04:54:45;;;;;;;;;;;16.30;96.30;;;;;;5036222;28;19940;-71
2022/10/19 04:57:12;;;;;;;;;;;16.20;96.20;;;;;;5040460;28;19929;-70
2022/10/19 04:59:39;;;;;;;;;;;16.20;96.20;;;;;;5042367;28;19936;-73
2022/10/19 05:02:05;;;;;;;;;;;16.20;96.20;;;;;;5042642;28;20424;-70
2022/10/19 05:04:32;;;;;;;;;;;16.20;96.20;;;;;;5039220;28;19929;-69
2022/10/19 05:06:58;;;;;;;;;;;16.20;96.30;;;;;;5044287;28;19929;-70
2022/10/19 05:09:25;;;;;;;;;;;16.20;96.20;;;;;;5042969;28;20043;-70
2022/10/19 05:11:53;;;;;;;;;;;16.20;96.20;;;;;;5039053;28;20309;-70
2022/10/19 05:14:19;;;;;;;;;;;16.20;96.20;;;;;;5044214;28;19984;-69
2022/10/19 05:16:46;;;;;;;;;;;16.20;96.30;;;;;;5042990;28;19936;-71
2022/10/19 05:19:13;;;;;;;;;;;16.20;96.30;;;;;;5040659;28;19932;-71
2022/10/19 05:21:39;;;;;;;;;;;16.20;96.20;;;;;;5042762;28;19928;-72
2022/10/19 05:24:06;;;;;;;;;;;16.10;96.30;;;;;;5041598;28;20650;-71
2022/10/19 05:26:33;;;;;;;;;;;16.10;96.30;;;;;;5041369;28;19929;-71
2022/10/19 05:29:03;;;;;;;;;;;16.10;96.40;;;;;;5045086;28;19940;-73
2022/10/19 05:31:30;;;;;;;;;;;16.10;96.40;;;;;;5041625;28;19936;-69
2022/10/19 05:33:57;;;;;;;;;;;16.10;96.40;;;;;;5046944;28;20488;-70
2022/10/19 05:36:25;;;;;;;;;;;16.10;96.40;;;;;;5044972;28;19929;-72
2022/10/19 05:38:52;;;;;;;;;;;16.10;96.40;;;;;;5043285;28;19933;-71
2022/10/19 05:41:19;;;;;;;;;;;16.10;96.40;;;;;;5042952;28;19933;-71
2022/10/19 05:43:46;;;;;;;;;;;16.10;96.40;;;;;;5043758;28;19936;-72
2022/10/19 05:46:16;;;;;;;;;;;16.10;96.40;;;;;;5041701;28;19936;-71
2022/10/19 05:48:42;;;;;;;;;;;16.00;96.40;;;;;;5038208;28;20550;-73
2022/10/19 05:51:11;;;;;;;;;;;16.10;96.40;;;;;;5043120;28;19933;-72
2022/10/19 05:53:37;;;;;;;;;;;16.10;96.50;;;;;;5042631;28;19936;-71
2022/10/19 05:56:05;;;;;;;;;;;16.00;96.40;;;;;;5043278;28;19944;-71
2022/10/19 05:58:32;;;;;;;;;;;16.00;96.40;;;;;;5041521;28;20385;-71
2022/10/19 06:00:59;;;;;;;;;;;16.00;96.50;;;;;;5042747;28;19928;-71
2022/10/19 06:03:27;;;;;;;;;;;16.00;96.50;;;;;;5042091;28;19928;-71
2022/10/19 06:05:53;;;;;;;;;;;16.00;96.50;;;;;;5044886;28;19930;-71
2022/10/19 06:08:21;;;;;;;;;;;16.10;96.50;;;;;;5038489;28;19929;-71
2022/10/19 06:10:48;;;;;;;;;;;16.00;96.40;;;;;;5040324;28;19936;-71
2022/10/19 06:13:15;;;;;;;;;;;16.00;96.40;;;;;;5044240;28;19940;-71
2022/10/19 06:15:41;;;;;;;;;;;16.00;96.80;;;;;;5043658;28;19936;-71
2022/10/19 06:18:09;;;;;;;;;;;16.00;96.50;;;;;;5042974;28;19936;-71
2022/10/19 06:20:37;;;;;;;;;;;16.00;96.50;;;;;;5041486;28;19929;-72
2022/10/19 06:23:04;;;;;;;;;;;16.00;96.50;;;;;;5040908;28;19936;-71
2022/10/19 06:25:31;;;;;;;;;;;16.00;96.50;;;;;;5040465;28;19929;-71
2022/10/19 06:27:57;;;;;;;;;;;16.00;96.50;;;;;;5039095;28;19945;-72
2022/10/19 06:30:24;;;;;;;;;;;16.00;96.50;;;;;;5042934;28;19928;-74
2022/10/19 06:32:51;;;;;;;;;;;15.90;96.50;;;;;;5042904;28;20371;-71
2022/10/19 06:35:17;;;;;;;;;;;16.00;96.50;;;;;;5044014;28;19928;-71
2022/10/19 06:37:45;;;;;;;;;;;15.90;96.50;;;;;;5043208;28;20155;-71
2022/10/19 06:40:12;;;;;;;;;;;16.00;96.50;;;;;;5038998;28;20350;-71
2022/10/19 06:42:39;;;;;;;;;;;15.90;96.50;;;;;;5042052;28;19929;-70
2022/10/19 06:45:06;;;;;;;;;;;15.90;96.50;;;;;;5037861;28;19944;-71
2022/10/19 06:47:33;;;;;;;;;;;15.90;96.50;;;;;;5043159;28;19928;-70
2022/10/19 06:50:00;;;;;;;;;;;15.90;96.50;;;;;;5039635;28;19933;-70
2022/10/19 06:52:26;;;;;;;;;;;16.00;96.60;;;;;;5042045;28;19933;-70
2022/10/19 06:54:54;;;;;;;;;;;16.00;96.60;;;;;;5042387;28;19940;-70
2022/10/19 06:57:21;;;;;;;;;;;15.90;96.50;;;;;;5039734;28;19928;-70
2022/10/19 06:59:47;;;;;;;;;;;15.90;96.50;;;;;;5036742;28;19929;-71
2022/10/19 07:02:14;;;;;;;;;;;16.00;96.60;;;;;;5040137;28;19929;-71
2022/10/19 07:04:40;;;;;;;;;;;15.90;96.50;;;;;;5043954;28;20415;-71
2022/10/19 07:07:07;;;;;;;;;;;15.90;96.50;;;;;;5043271;28;20289;-71
2022/10/19 07:09:34;;;;;;;;;;;15.90;96.50;;;;;;5038698;28;20301;-71
2022/10/19 07:12:02;;;;;;;;;;;15.90;96.60;;;;;;5040708;28;19929;-70
2022/10/19 07:14:28;;;;;;;;;;;15.90;96.60;;;;;;5040148;28;19933;-71
2022/10/19 07:16:55;;;;;;;;;;;15.90;96.60;;;;;;5038938;28;19933;-71
2022/10/19 07:19:21;;;;;;;;;;;15.90;96.60;;;;;;5041685;28;20405;-71
2022/10/19 07:21:50;;;;;;;;;;;15.90;96.60;;;;;;5040685;28;19929;-72
2022/10/19 07:24:16;;;;;;;;;;;15.90;96.60;;;;;;5043016;28;19936;-71
2022/10/19 07:26:43;;;;;;;;;;;15.90;96.60;;;;;;5040194;28;20342;-71
2022/10/19 07:29:11;;;;;;;;;;;15.90;96.50;;;;;;5039789;28;20532;-71
2022/10/19 07:31:38;;;;;;;;;;;15.90;96.60;;;;;;5041978;28;19928;-70
2022/10/19 07:34:05;;;;;;;;;;;15.90;96.60;;;;;;5040729;28;19936;-71
2022/10/19 07:36:33;;;;;;;;;;;15.90;96.60;;;;;;5044054;28;19982;-71
2022/10/19 07:39:00;;;;;;;;;;;15.90;96.90;;;;;;5043636;28;19940;-70
2022/10/19 07:41:27;;;;;;;;;;;15.90;96.60;;;;;;5041449;28;19925;-70
2022/10/19 07:43:54;;;;;;;;;;;15.90;96.50;;;;;;5045056;28;19928;-70
2022/10/19 07:46:22;;;;;;;;;;;15.90;96.60;;;;;;5046346;28;19929;-71
2022/10/19 07:48:49;;;;;;;;;;;15.90;96.50;;;;;;5045556;28;19948;-71
2022/10/19 07:51:17;;;;;;;;;;;16.00;96.60;;;;;;5045461;28;20347;-71
2022/10/19 07:53:43;;;;;;;;;;;15.90;96.50;;;;;;5046446;28;19936;-71
2022/10/19 07:56:11;;;;;;;;;;;15.90;96.50;;;;;;5041364;28;19936;-71
2022/10/19 07:58:38;;;;;;;;;;;15.90;96.50;;;;;;5044404;28;19929;-71
2022/10/19 08:01:06;;;;;;;;;;;16.00;96.60;;;;;;5045456;28;19932;-71
2022/10/19 08:03:34;;;;;;;;;;;15.90;96.60;;;;;;5044085;28;19936;-71
2022/10/19 08:06:01;;;;;;;;;;;15.90;96.50;;;;;;5045277;28;19936;-71
2022/10/19 08:08:28;;;;;;;;;;;15.90;96.50;;;;;;5041143;28;19928;-71
2022/10/19 08:10:54;;;;;;;;;;;15.90;96.50;;;;;;5044897;28;19929;-70
2022/10/19 08:13:21;;;;;;;;;;;15.90;96.50;;;;;;5045041;28;19929;-71
2022/10/19 08:15:48;;;;;;;;;;;15.90;96.50;;;;;;5043158;28;20344;-71
2022/10/19 08:18:15;;;;;;;;;;;15.90;96.50;;;;;;5043453;28;19929;-70
2022/10/19 08:20:43;;;;;;;;;;;15.90;96.50;;;;;;5042178;28;19929;-71
2022/10/19 08:23:10;;;;;;;;;;;15.90;96.50;;;;;;5045571;28;20010;-72
2022/10/19 08:25:37;;;;;;;;;;;15.90;96.50;;;;;;5044298;28;19929;-71
2022/10/19 08:28:03;;;;;;;;;;;15.90;96.50;;;;;;5044444;28;19995;-70
2022/10/19 08:30:30;;;;;;;;;;;15.90;96.50;;;;;;5044473;28;20723;-71
2022/10/19 08:32:56;;;;;;;;;;;15.90;96.50;;;;;;5044576;28;19929;-70
2022/10/19 08:35:23;;;;;;;;;;;15.90;96.50;;;;;;5045668;28;19933;-71
2022/10/19 08:37:51;;;;;;;;;;;15.90;96.50;;;;;;5045891;28;19935;-71
2022/10/19 08:40:19;;;;;;;;;;;15.90;96.80;;;;;;5041829;28;20857;-71
2022/10/19 08:42:51;;;;;;;;;;;15.90;96.50;;;;;;5042993;28;19956;-71
2022/10/19 08:45:25;;;;;;;;;;;15.90;96.40;;;;;;5041600;28;19929;-71
2022/10/19 08:47:59;;;;;;;;;;;15.90;96.40;;;;;;5042403;28;19929;-71
2022/10/19 08:50:29;;;;;;;;;;;15.90;96.40;;;;;;5042897;28;19929;-71
2022/10/19 08:53:00;;;;;;;;;;;15.90;96.40;;;;;;5041044;28;20404;-71
2022/10/19 08:55:29;;;;;;;;;;;15.90;96.40;;;;;;5036460;28;19975;-71
2022/10/19 08:58:00;;;;;;;;;;;15.90;96.40;;;;;;5042402;28;19939;-72
2022/10/19 09:00:32;;;;;;;;;;;15.90;96.40;;;;;;5036025;28;19935;-70
2022/10/19 09:03:03;;;;;;;;;;;15.90;96.40;;;;;;5044935;28;19933;-72
2022/10/19 09:05:32;;;;;;;;;;;15.90;96.40;;;;;;5044813;28;20369;-70
2022/10/19 09:08:00;;;;;;;;;;;15.90;96.40;;;;;;5042720;28;19952;-71
2022/10/19 09:10:29;;;;;;;;;;;16.00;96.50;;;;;;5042812;28;19925;-71
2022/10/19 09:12:57;;;;;;;;;;;16.00;96.40;;;;;;5045634;28;19933;-71
2022/10/19 09:15:26;;;;;;;;;;;16.00;96.40;;;;;;5041777;28;19955;-71
2022/10/19 09:17:53;;;;;;;;;;;16.00;96.40;;;;;;5043653;28;19929;-71
2022/10/19 09:20:20;;;;;;;;;;;16.00;96.40;;;;;;5044728;28;19929;-71
2022/10/19 09:22:50;;;;;;;;;;;16.00;96.40;;;;;;5043260;28;19929;-71
2022/10/19 09:25:20;;;;;;;;;;;16.00;96.40;;;;;;5043303;28;19929;-71
2022/10/19 09:27:48;;;;;;;;;;;16.00;96.30;;;;;;5042884;28;19935;-71
2022/10/19 09:30:16;;;;;;;;;;;16.00;96.70;;;;;;5042150;28;19936;-72
2022/10/19 09:32:43;;;;;;;;;;;16.00;96.30;;;;;;5047463;28;19928;-72
2022/10/19 09:35:18;;;;;;;;;;;16.00;96.30;;;;;;5044971;28;19928;-71
2022/10/19 09:37:47;;;;;;;;;;;16.00;96.30;;;;;;5043393;28;20305;-71
2022/10/19 09:40:15;;;;;;;;;;;16.10;96.30;;;;;;5044114;28;19936;-72
2022/10/19 09:42:44;;;;;;;;;;;16.00;96.30;;;;;;5042567;28;19962;-71
2022/10/19 09:45:14;;;;;;;;;;;16.00;96.20;;;;;;5041834;28;20356;-71
2022/10/19 09:47:42;;;;;;;;;;;16.00;96.20;;;;;;5044001;28;19929;-71
2022/10/19 09:50:15;;;;;;;;;;;16.10;96.20;;;;;;5041874;28;19936;-71
2022/10/19 09:52:43;;;;;;;;;;;16.10;96.20;;;;;;5041715;28;19951;-71
2022/10/19 09:55:19;;;;;;;;;;;16.10;96.20;;;;;;5040723;28;19935;-72
2022/10/19 09:57:48;;;;;;;;;;;16.10;96.50;;;;;;5040967;28;19932;-72
2022/10/19 10:00:18;;;;;;;;;;;16.10;96.20;;;;;;5037804;28;20535;-71
2022/10/19 10:02:49;;;;;;;;;;;16.10;96.20;;;;;;5042961;28;19968;-71
2022/10/19 10:05:15;;;;;;;;;;;16.20;96.20;;;;;;5040296;28;19932;-72
2022/10/19 10:07:42;;;;;;;;;;;16.10;96.20;;;;;;5042089;28;19929;-71
2022/10/19 10:10:10;;;;;;;;;;;16.20;96.20;;;;;;5041528;28;19929;-72
2022/10/19 10:12:37;;;;;;;;;;;16.20;96.10;;;;;;5040245;28;20015;-71
2022/10/19 10:15:06;;;;;;;;;;;16.20;96.10;;;;;;5043128;28;19929;-71
2022/10/19 10:17:33;;;;;;;;;;;16.20;96.10;;;;;;5042481;28;19937;-70
2022/10/19 10:20:05;;;;;;;;;;;16.20;96.10;;;;;;5042155;28;19940;-72
2022/10/19 10:22:32;;;;;;;;;;;16.20;96.10;;;;;;5041270;28;20427;-71
2022/10/19 10:24:59;;;;;;;;;;;16.20;96.10;;;;;;5041773;28;19928;-71
2022/10/19 10:27:29;;;;;;;;;;;16.20;96.10;;;;;;5041994;28;19933;-71
2022/10/19 10:29:56;;;;;;;;;;;16.20;96.00;;;;;;5040510;28;19940;-71
2022/10/19 10:32:24;;;;;;;;;;;16.20;96.00;;;;;;5039988;28;19936;-71
2022/10/19 10:34:56;;;;;;;;;;;16.30;96.00;;;;;;5043852;28;20588;-71
2022/10/19 10:37:24;;;;;;;;;;;16.30;96.00;;;;;;5037507;28;20425;-71
2022/10/19 10:39:51;;;;;;;;;;;16.30;95.90;;;;;;5041431;28;19940;-71
2022/10/19 10:42:20;;;;;;;;;;;16.30;95.90;;;;;;5041983;28;20022;-71
2022/10/19 10:44:49;;;;;;;;;;;16.40;95.90;;;;;;5041866;28;19932;-71
2022/10/19 10:47:17;;;;;;;;;;;16.40;95.80;;;;;;5040809;28;19935;-71
2022/10/19 10:49:52;;;;;;;;;;;16.40;95.80;;;;;;5042110;28;19932;-71
2022/10/19 10:52:19;;;;;;;;;;;16.50;95.80;;;;;;5043691;28;19936;-71
2022/10/19 10:54:57;;;;;;;;;;;16.50;95.80;;;;;;5039554;28;19940;-71
2022/10/19 10:57:25;;;;;;;;;;;16.50;95.70;;;;;;5036423;28;20478;-70
2022/10/19 10:59:55;;;;;;;;;;;16.50;95.60;;;;;;5041631;28;19929;-71
2022/10/19 11:02:42;;;;;;;;;;;16.50;95.60;;;;;;5039793;28;19929;-71
2022/10/19 11:05:13;;;;;;;;;;;16.60;95.60;;;;;;5036257;28;19940;-71
2022/10/19 11:07:41;;;;;;;;;;;16.60;95.50;;;;;;5043051;28;19932;-70
2022/10/19 11:10:13;;;;;;;;;;;16.60;95.50;;;;;;5046128;28;19929;-71
2022/10/19 11:12:41;;;;;;;;;;;16.60;95.50;;;;;;5044608;28;19940;-70
2022/10/19 11:15:12;;;;;;;;;;;16.60;95.40;;;;;;5042946;28;19928;-71
2022/10/19 11:17:42;;;;;;;;;;;16.60;95.40;;;;;;5042917;28;19933;-71
2022/10/19 11:20:13;;;;;;;;;;;16.70;95.40;;;;;;5043194;28;19982;-70
2022/10/19 11:22:44;;;;;;;;;;;16.70;95.30;;;;;;5043453;28;20680;-70
2022/10/19 11:25:21;;;;;;;;;;;16.70;95.30;;;;;;5047156;28;20005;-71
2022/10/19 11:27:53;;;;;;;;;;;16.70;95.30;;;;;;5042706;28;19951;-71
2022/10/19 11:30:20;;;;;;;;;;;16.70;95.30;;;;;;5043152;28;19929;-71
2022/10/19 11:32:51;;;;;;;;;;;16.70;95.30;;;;;;5042057;28;19933;-70
2022/10/19 11:35:30;;;;;;;;;;;16.70;95.30;;;;;;5047162;28;19933;-70
2022/10/19 11:38:02;;;;;;;;;;;16.70;95.30;;;;;;5038835;28;19933;-71
2022/10/19 11:40:32;;;;;;;;;;;16.70;95.30;;;;;;5042653;28;19933;-71
2022/10/19 11:43:03;;;;;;;;;;;16.80;95.20;;;;;;5042133;28;20243;-70
2022/10/19 11:45:35;;;;;;;;;;;16.70;95.20;;;;;;5044823;28;19932;-70
2022/10/19 11:48:13;;;;;;;;;;;16.80;95.20;;;;;;5046395;28;19936;-71
2022/10/19 11:50:45;;;;;;;;;;;16.80;95.20;;;;;;5044283;28;19936;-70
2022/10/19 11:53:15;;;;;;;;;;;16.80;95.20;;;;;;5042564;28;19929;-70
2022/10/19 11:55:45;;;;;;;;;;;16.90;95.20;;;;;;5043990;28;19928;-70
2022/10/19 11:58:20;;;;;;;;;;;16.90;95.20;;;;;;5041450;28;20393;-71
2022/10/19 12:00:50;;;;;;;;;;;16.90;95.10;;;;;;5042020;28;19933;-70
2022/10/19 12:03:33;;;;;;;;;;;16.90;95.00;;;;;;5044482;28;19932;-70
2022/10/19 12:06:09;;;;;;;;;;;16.90;94.90;;;;;;5044563;28;19928;-71
2022/10/19 12:08:54;;;;;;;;;;;17.00;94.80;;;;;;5044040;28;19933;-70
2022/10/19 12:11:24;;;;;;;;;;;17.00;94.80;;;;;;5043195;28;19928;-70
2022/10/19 12:13:54;;;;;;;;;;;17.00;94.80;;;;;;5041367;28;20392;-70
2022/10/19 12:16:23;;;;;;;;;;;17.00;94.80;;;;;;5043609;28;19935;-70
2022/10/19 12:18:51;;;;;;;;;;;17.10;94.70;;;;;;5043298;28;20395;-70
2022/10/19 12:21:23;;;;;;;;;;;17.10;94.60;;;;;;5043470;28;19940;-70
2022/10/19 12:23:50;;;;;;;;;;;17.10;94.60;;;;;;5043047;28;20455;-71
2022/10/19 12:26:18;;;;;;;;;;;17.10;94.50;;;;;;5040597;28;20511;-71
2022/10/19 12:28:47;;;;;;;;;;;17.10;94.30;;;;;;5042861;28;20332;-70
2022/10/19 12:31:14;;;;;;;;;;;17.20;94.30;;;;;;5041850;28;19928;-70
2022/10/19 12:33:46;;;;;;;;;;;17.20;94.20;;;;;;5042466;28;20143;-70
2022/10/19 12:36:18;;;;;;;;;;;17.30;94.30;;;;;;5043926;28;19928;-70
2022/10/19 12:38:50;;;;;;;;;;;17.30;94.10;;;;;;5043827;28;19952;-70
2022/10/19 12:41:21;;;;;;;;;;;17.40;93.90;;;;;;5040892;28;20397;-70
2022/10/19 12:43:56;;;;;;;;;;;17.50;93.70;;;;;;5042630;28;19929;-70
2022/10/19 12:46:29;;;;;;;;;;;17.50;93.80;;;;;;5042708;28;19928;-71
2022/10/19 12:49:19;;;;;;;;;;;17.50;93.70;;;;;;5041107;28;19951;-70
2022/10/19 12:51:46;;;;;;;;;;;17.60;93.70;;;;;;5028880;28;20353;-71
2022/10/19 12:54:14;;;;;;;;;;;17.60;93.70;;;;;;5046369;28;19944;-70
2022/10/19 12:56:47;;;;;;;;;;;17.60;93.60;;;;;;5043425;28;19929;-72
2022/10/19 12:59:21;;;;;;;;;;;17.60;93.60;;;;;;5044579;28;19929;-70
2022/10/19 13:01:48;;;;;;;;;;;17.70;93.60;;;;;;5046085;28;19929;-70
2022/10/19 13:04:16;;;;;;;;;;;17.70;93.60;;;;;;5044650;28;19933;-70
2022/10/19 13:06:43;;;;;;;;;;;17.60;93.50;;;;;;5043158;28;19936;-71
2022/10/19 13:09:20;;;;;;;;;;;17.60;93.50;;;;;;5041784;28;19928;-72
2022/10/19 13:12:02;;;;;;;;;;;17.60;93.60;;;;;;5043813;28;20339;-69
2022/10/19 13:14:42;;;;;;;;;;;17.60;93.60;;;;;;5044432;28;19933;-71
2022/10/19 13:17:09;;;;;;;;;;;17.60;93.70;;;;;;5038757;28;20424;-71
2022/10/19 13:19:35;;;;;;;;;;;17.70;93.80;;;;;;5042785;28;20532;-70
2022/10/19 13:22:23;;;;;;;;;;;17.70;93.70;;;;;;5042617;28;20289;-74
2022/10/19 13:25:10;;;;;;;;;;;17.70;93.70;;;;;;5045080;28;19936;-74
2022/10/19 13:27:37;;;;;;;;;;;17.70;93.50;;;;;;5039485;28;20393;-74
2022/10/19 13:30:26;;;;;;;;;;;17.70;93.40;;;;;;5040459;28;19975;-74
2022/10/19 13:32:53;;;;;;;;;;;17.80;93.30;;;;;;5041619;28;19929;-74
2022/10/19 13:35:23;;;;;;;;;;;17.80;93.40;;;;;;5043079;28;19928;-74
2022/10/19 13:38:05;;;;;;;;;;;17.80;93.40;;;;;;5044681;28;20204;-75
2022/10/19 13:40:31;;;;;;;;;;;17.90;93.30;;;;;;5038606;28;19935;-74
2022/10/19 13:42:58;;;;;;;;;;;18.00;93.30;;;;;;5042922;28;19939;-75
2022/10/19 13:45:26;;;;;;;;;;;18.00;93.30;;;;;;5042588;28;19933;-74
2022/10/19 13:47:55;;;;;;;;;;;18.00;93.20;;;;;;5043483;28;20428;-74
2022/10/19 13:50:36;;;;;;;;;;;18.00;93.10;;;;;;5043203;28;20027;-73
2022/10/19 13:53:17;;;;;;;;;;;18.10;93.10;;;;;;5038826;28;19940;-74
2022/10/19 13:56:07;;;;;;;;;;;18.10;93.00;;;;;;5033172;28;19944;-73
2022/10/19 13:58:43;;;;;;;;;;;18.10;92.90;;;;;;5030026;28;19936;-74
2022/10/19 14:01:18;;;;;;;;;;;18.20;92.90;;;;;;5044267;28;19928;-72
2022/10/19 14:03:55;;;;;;;;;;;18.20;93.20;;;;;;5039088;28;19929;-73
2022/10/19 14:06:25;;;;;;;;;;;18.30;92.80;;;;;;5042324;28;20485;-75
2022/10/19 14:09:19;;;;;;;;;;;18.30;92.60;;;;;;5039392;28;19929;-76
2022/10/19 14:11:47;;;;;;;;;;;18.40;92.60;;;;;;5016712;28;19936;-74
2022/10/19 14:14:15;;;;;;;;;;;18.40;92.60;;;;;;5044321;28;20601;-75
2022/10/19 14:16:47;;;;;;;;;;;18.40;92.50;;;;;;5040049;28;19928;-75
2022/10/19 14:19:19;;;;;;;;;;;18.40;92.40;;;;;;5040670;28;19933;-74
2022/10/19 14:21:45;;;;;;;;;;;18.60;91.50;;;;;;5042913;28;19936;-74
2022/10/19 14:24:26;;;;;;;;;;;18.60;91.50;;;;;;5040776;28;19932;-74
2022/10/19 14:26:54;;;;;;;;;;;18.80;91.60;;;;;;5037953;28;19936;-74